Time;durP1;ratioP1;P1;durP2;ratioP2;P2;SDS_P1;SDS_P2;PMS_P1;PMS_P2;Temp;Humidity;BMP_temperature;BMP_pressure;BME280_temperature;BME280_humidity;BME280_pressure;Samples;Min_cycle;Max_cycle;Signal;HPM_P1;HPM_P2
2023/02/12 00:02:29;;;;;;;28.67;14.75;;;1.70;99.90;;;;;;8228476;28;20026;-80
2023/02/12 00:06:29;;;;;;;28.60;15.00;;;1.90;99.90;;;;;;8230787;28;20014;-80
2023/02/12 00:10:30;;;;;;;32.50;14.75;;;1.80;99.90;;;;;;8230824;28;20033;-80
2023/02/12 00:14:31;;;;;;;32.30;14.70;;;1.90;99.90;;;;;;8230761;28;20033;-79
2023/02/12 00:18:31;;;;;;;28.92;13.65;;;2.30;99.90;;;;;;8232337;28;20122;-80
2023/02/12 00:22:32;;;;;;;26.63;13.43;;;2.20;99.90;;;;;;8231380;28;20611;-79
2023/02/12 00:26:32;;;;;;;29.08;12.90;;;1.90;99.90;;;;;;8230517;28;20023;-80
2023/02/12 00:30:33;;;;;;;30.50;13.48;;;1.70;99.90;;;;;;8235776;28;20037;-78
2023/02/12 00:34:34;;;;;;;30.00;13.73;;;1.60;99.90;;;;;;8235815;28;20027;-80
2023/02/12 00:38:35;;;;;;;26.02;13.15;;;1.50;99.90;;;;;;8237434;28;20442;-79
2023/02/12 00:42:35;;;;;;;30.98;15.10;;;1.60;99.90;;;;;;8235956;28;20102;-80
2023/02/12 00:46:36;;;;;;;27.42;14.23;;;1.60;99.90;;;;;;8234173;28;20062;-80
2023/02/12 00:50:37;;;;;;;36.53;15.57;;;1.70;99.90;;;;;;8235670;28;20597;-80
2023/02/12 00:54:38;;;;;;;28.65;13.35;;;1.60;99.90;;;;;;8234033;28;20499;-80
2023/02/12 00:58:38;;;;;;;24.27;12.48;;;1.70;99.90;;;;;;8234027;28;20126;-78
2023/02/12 01:02:39;;;;;;;29.55;13.18;;;1.90;99.90;;;;;;8238199;28;20034;-80
2023/02/12 01:06:39;;;;;;;23.63;11.50;;;1.80;99.90;;;;;;8235842;28;20023;-80
2023/02/12 01:10:41;;;;;;;26.75;13.07;;;1.70;99.90;;;;;;8236429;28;20023;-80
2023/02/12 01:14:41;;;;;;;28.20;12.73;;;1.80;99.90;;;;;;8235733;28;20030;-80
2023/02/12 01:18:42;;;;;;;29.05;13.40;;;1.80;99.90;;;;;;8236167;28;20019;-79
2023/02/12 01:22:43;;;;;;;29.92;13.35;;;1.70;99.90;;;;;;8240319;28;20491;-80
2023/02/12 01:26:44;;;;;;;34.63;13.88;;;1.80;99.90;;;;;;8236857;28;20015;-80
2023/02/12 01:30:44;;;;;;;32.17;13.93;;;1.70;99.90;;;;;;8234877;28;20050;-79
2023/02/12 01:34:45;;;;;;;30.02;13.95;;;1.70;99.90;;;;;;8236266;28;20030;-79
2023/02/12 01:38:46;;;;;;;29.77;14.20;;;1.80;99.90;;;;;;8239320;28;20054;-80
2023/02/12 01:42:46;;;;;;;35.53;13.25;;;2.10;99.90;;;;;;8237885;28;20033;-79
2023/02/12 01:46:49;;;;;;;29.35;13.77;;;2.00;99.90;;;;;;8233480;28;20019;-80
2023/02/12 01:50:51;;;;;;;26.80;13.25;;;1.90;99.90;;;;;;8235949;28;20081;-80
2023/02/12 01:54:54;;;;;;;29.25;12.13;;;1.80;99.90;;;;;;8236456;28;20042;-79
2023/02/12 01:58:56;;;;;;;36.47;13.82;;;1.80;99.90;;;;;;8234279;28;20038;-77
2023/02/12 02:03:00;;;;;;;30.60;13.50;;;1.80;99.90;;;;;;8234491;28;20042;-79
2023/02/12 02:07:03;;;;;;;28.50;12.85;;;1.80;99.90;;;;;;8233948;28;20033;-79
2023/02/12 02:14:31;;;;;;;26.83;12.82;;;1.90;99.90;;;;;;8233764;28;20026;-80
2023/02/12 02:15:26;;;;;;;24.42;12.23;;;1.90;99.90;;;;;;8235216;28;20035;-80
2023/02/12 02:19:40;;;;;;;30.95;13.23;;;1.80;99.90;;;;;;8233773;28;20113;-79
2023/02/12 02:24:17;;;;;;;23.58;12.13;;;1.80;99.90;;;;;;8232259;28;20634;-80
2023/02/12 02:28:32;;;;;;;24.70;11.23;;;2.20;99.90;;;;;;8234878;28;20018;-80
2023/02/12 02:33:02;;;;;;;28.55;11.75;;;2.20;99.90;;;;;;8234906;28;20031;-79
2023/02/12 02:37:02;;;;;;;27.10;11.40;;;1.90;99.90;;;;;;8223017;28;20041;-80
2023/02/12 02:41:28;;;;;;;27.67;13.00;;;1.80;99.90;;;;;;8233497;28;20480;-80
2023/02/12 02:45:41;;;;;;;36.78;14.82;;;2.00;99.90;;;;;;8233566;28;20043;-80
2023/02/12 02:49:55;;;;;;;32.60;14.13;;;1.80;99.90;;;;;;8232361;28;20084;-78
2023/02/12 02:54:11;;;;;;;29.85;13.18;;;1.90;99.90;;;;;;8228298;28;20023;-80
2023/02/12 02:58:20;;;;;;;26.02;12.20;;;1.80;99.90;;;;;;8232227;28;20022;-79
2023/02/12 03:02:26;;;;;;;28.58;12.50;;;1.90;99.90;;;;;;8228821;28;20031;-80
2023/02/12 03:06:39;;;;;;;24.80;11.77;;;1.80;99.90;;;;;;8230855;28;20740;-79
2023/02/12 03:10:48;;;;;;;21.95;10.77;;;1.90;99.90;;;;;;8231388;28;20078;-80
2023/02/12 03:14:55;;;;;;;20.83;9.85;;;1.90;99.90;;;;;;8231530;28;20062;-80
2023/02/12 03:19:12;;;;;;;20.70;10.38;;;2.10;99.90;;;;;;8234405;28;20049;-81
2023/02/12 03:23:18;;;;;;;28.30;10.98;;;1.90;99.90;;;;;;8236195;28;20023;-81
2023/02/12 03:27:36;;;;;;;19.73;10.23;;;2.00;99.90;;;;;;8233264;28;20038;-81
2023/02/12 03:31:51;;;;;;;22.80;10.05;;;1.90;99.90;;;;;;8234856;28;20064;-80
2023/02/12 03:36:08;;;;;;;21.48;10.10;;;1.70;99.90;;;;;;8234845;28;20027;-81
2023/02/12 03:40:19;;;;;;;18.80;9.55;;;1.70;99.90;;;;;;8235189;28;20369;-81
2023/02/12 03:44:36;;;;;;;19.08;9.02;;;1.60;99.90;;;;;;8235277;28;20027;-81
2023/02/12 03:49:03;;;;;;;22.10;9.38;;;1.60;99.90;;;;;;8235675;28;20515;-81
2023/02/12 03:53:05;;;;;;;24.95;10.32;;;1.70;99.90;;;;;;8235563;28;20023;-81
2023/02/12 03:57:17;;;;;;;20.35;10.15;;;1.60;99.90;;;;;;8235635;28;20538;-81
2023/02/12 04:01:17;;;;;;;21.02;10.57;;;1.50;99.90;;;;;;8233427;28;20023;-81
2023/02/12 04:05:21;;;;;;;23.65;10.63;;;1.50;99.90;;;;;;8240763;28;20129;-81
2023/02/12 04:09:25;;;;;;;23.83;11.57;;;1.50;99.90;;;;;;8242239;28;20048;-81
2023/02/12 04:14:04;;;;;;;27.65;11.30;;;1.50;99.90;;;;;;8241425;28;20562;-80
2023/02/12 04:18:19;;;;;;;23.75;10.85;;;1.70;99.90;;;;;;8236873;28;20123;-80
2023/02/12 04:22:44;;;;;;;25.85;11.10;;;1.80;99.90;;;;;;8239153;28;20019;-80
2023/02/12 04:26:53;;;;;;;19.88;9.98;;;1.80;99.90;;;;;;8241137;28;20042;-80
2023/02/12 04:31:23;;;;;;;23.65;9.32;;;2.10;99.90;;;;;;8242871;28;20447;-79
2023/02/12 04:35:35;;;;;;;18.80;9.90;;;2.30;99.90;;;;;;8244154;28;20054;-79
2023/02/12 04:39:38;;;;;;;25.80;11.20;;;2.00;99.90;;;;;;8265550;28;20246;-79
2023/02/12 04:43:39;;;;;;;18.35;10.63;;;1.80;99.90;;;;;;8263564;28;20089;-79
2023/02/12 04:47:39;;;;;;;23.33;10.18;;;1.70;99.90;;;;;;8269796;28;20027;-79
2023/02/12 04:51:40;;;;;;;23.25;10.27;;;1.80;99.90;;;;;;8265413;28;20050;-78
2023/02/12 04:55:40;;;;;;;36.88;13.10;;;1.90;99.90;;;;;;8254087;28;20519;-80
2023/02/12 04:59:41;;;;;;;32.25;12.90;;;1.90;99.90;;;;;;8236489;28;20484;-80
2023/02/12 05:03:41;;;;;;;29.88;14.05;;;1.70;99.90;;;;;;8235346;28;20026;-80
2023/02/12 05:07:42;;;;;;;41.08;15.43;;;1.70;99.90;;;;;;8234698;28;20022;-79
2023/02/12 05:11:43;;;;;;;34.10;12.77;;;1.80;99.90;;;;;;8234269;28;20014;-79
2023/02/12 05:15:43;;;;;;;27.38;12.63;;;1.70;99.90;;;;;;8233574;28;20121;-80
2023/02/12 05:19:44;;;;;;;24.13;11.88;;;1.70;99.90;;;;;;8233980;28;20023;-80
2023/02/12 05:23:44;;;;;;;29.00;11.95;;;1.70;99.90;;;;;;8235154;28;20019;-80
2023/02/12 05:27:45;;;;;;;24.52;10.98;;;1.60;99.90;;;;;;8234832;28;20054;-79
2023/02/12 05:31:45;;;;;;;21.45;11.13;;;1.70;99.90;;;;;;8233686;28;20034;-80
2023/02/12 05:35:46;;;;;;;28.88;11.50;;;1.80;99.90;;;;;;8233387;28;20657;-80
2023/02/12 05:39:49;;;;;;;23.67;11.05;;;1.90;99.90;;;;;;8235521;28;20498;-80
2023/02/12 05:43:50;;;;;;;25.73;11.95;;;1.80;99.90;;;;;;8234233;28;20062;-81
2023/02/12 05:47:50;;;;;;;22.73;10.80;;;1.70;99.90;;;;;;8234737;28;20031;-81
2023/02/12 05:51:51;;;;;;;27.60;12.65;;;1.80;99.90;;;;;;8234443;28;20027;-81
2023/02/12 05:55:51;;;;;;;18.48;10.07;;;1.70;99.90;;;;;;8234136;28;20022;-81
2023/02/12 05:59:52;;;;;;;25.35;11.20;;;1.90;99.90;;;;;;8234438;28;20209;-80
2023/02/12 06:03:53;;;;;;;22.05;10.13;;;2.20;99.90;;;;;;8235612;28;20030;-80
2023/02/12 06:07:53;;;;;;;21.65;11.20;;;2.00;99.90;;;;;;8233772;28;20399;-80
2023/02/12 06:11:54;;;;;;;20.83;11.15;;;1.90;99.90;;;;;;8233702;28;20117;-81
2023/02/12 06:15:55;;;;;;;22.25;10.38;;;1.80;99.90;;;;;;8232361;28;20666;-80
2023/02/12 06:19:55;;;;;;;19.75;10.43;;;1.80;99.90;;;;;;8235326;28;20019;-80
2023/02/12 06:23:56;;;;;;;21.40;11.52;;;1.80;99.90;;;;;;8234426;28;20450;-80
2023/02/12 06:27:56;;;;;;;27.10;10.50;;;2.10;99.90;;;;;;8233095;28;20023;-80
2023/02/12 06:31:57;;;;;;;21.30;9.75;;;2.10;99.90;;;;;;8233545;28;20034;-80
2023/02/12 06:35:57;;;;;;;23.33;10.40;;;2.20;99.90;;;;;;8232747;28;20050;-80
2023/02/12 06:39:58;;;;;;;20.25;10.07;;;2.20;99.90;;;;;;8233079;28;20018;-80
2023/02/12 06:43:59;;;;;;;23.08;10.27;;;1.90;99.90;;;;;;8234164;28;20058;-80
2023/02/12 06:47:59;;;;;;;25.42;12.13;;;2.20;99.90;;;;;;8233582;28;20109;-80
2023/02/12 06:52:00;;;;;;;24.35;11.38;;;2.30;99.90;;;;;;8231215;28;20054;-80
2023/02/12 06:56:03;;;;;;;33.88;12.07;;;2.40;99.90;;;;;;8232891;28;20069;-80
2023/02/12 07:00:04;;;;;;;23.20;11.20;;;2.10;99.90;;;;;;8232213;28;20019;-81
2023/02/12 07:04:04;;;;;;;26.20;13.00;;;2.70;99.90;;;;;;8234139;28;20042;-80
2023/02/12 07:08:05;;;;;;;28.67;12.10;;;2.50;99.90;;;;;;8232016;28;20027;-80
2023/02/12 07:12:06;;;;;;;32.75;12.63;;;2.40;99.90;;;;;;8233517;28;20062;-81
2023/02/12 07:16:10;;;;;;;24.80;12.10;;;2.60;99.90;;;;;;8231681;28;20089;-81
2023/02/12 07:20:11;;;;;;;24.77;11.68;;;2.70;99.90;;;;;;8231958;28;20018;-80
2023/02/12 07:24:13;;;;;;;24.17;11.95;;;2.80;99.90;;;;;;8232235;28;20023;-81
2023/02/12 07:28:13;;;;;;;23.73;12.48;;;2.70;99.90;;;;;;8232499;28;20023;-80
2023/02/12 07:32:14;;;;;;;26.33;12.68;;;2.80;99.90;;;;;;8233229;28;20045;-80
2023/02/12 07:36:17;;;;;;;25.02;12.52;;;3.00;99.90;;;;;;8231715;28;20077;-80
2023/02/12 07:40:18;;;;;;;33.97;14.23;;;3.10;99.90;;;;;;8240789;28;20102;-81
2023/02/12 07:44:18;;;;;;;28.83;13.93;;;3.20;99.90;;;;;;8240095;28;20257;-81
2023/02/12 07:48:19;;;;;;;42.50;18.90;;;3.30;99.90;;;;;;8237812;28;20041;-80
2023/02/12 07:52:19;;;;;;;44.80;18.33;;;3.70;99.90;;;;;;8235373;28;20031;-81
2023/02/12 07:56:30;;;;;;;29.70;12.98;;;3.90;99.90;;;;;;8235544;28;20035;-80
2023/02/12 08:00:31;;;;;;;21.67;10.60;;;4.20;99.90;;;;;;8236838;28;20030;-80
2023/02/12 08:04:31;;;;;;;23.02;11.23;;;4.50;99.90;;;;;;8235601;28;20030;-81
2023/02/12 08:08:32;;;;;;;25.10;11.40;;;4.60;99.90;;;;;;8235679;28;20038;-81
2023/02/12 08:12:33;;;;;;;24.25;10.77;;;4.80;99.90;;;;;;8230877;28;20027;-81
2023/02/12 08:16:38;;;;;;;18.05;9.07;;;4.90;99.90;;;;;;8230932;28;20023;-80
2023/02/12 08:20:39;;;;;;;16.13;8.05;;;5.50;99.90;;;;;;8228484;28;20030;-80
2023/02/12 08:24:41;;;;;;;14.52;7.32;;;5.70;99.90;;;;;;8230484;28;20042;-80
2023/02/12 08:28:45;;;;;;;14.25;7.25;;;5.90;99.90;;;;;;8232398;28;20458;-80
2023/02/12 08:32:48;;;;;;;17.13;7.35;;;5.80;99.90;;;;;;8223426;28;20103;-78
2023/02/12 08:36:52;;;;;;;8.32;4.60;;;5.70;99.90;;;;;;8234337;28;20019;-78
2023/02/12 08:40:53;;;;;;;17.48;7.85;;;5.70;99.90;;;;;;8233761;28;20105;-80
2023/02/12 08:44:53;;;;;;;15.82;7.70;;;5.60;99.90;;;;;;8234219;28;20479;-78
2023/02/12 08:48:56;;;;;;;15.60;7.80;;;5.80;99.90;;;;;;8232383;28;20030;-78
2023/02/12 08:52:56;;;;;;;17.83;7.88;;;6.00;99.90;;;;;;8232838;28;20048;-78
2023/02/12 08:57:00;;;;;;;16.60;7.20;;;6.20;99.90;;;;;;8234192;28;20035;-79
2023/02/12 09:01:02;;;;;;;19.30;8.27;;;6.40;99.90;;;;;;8233011;28;20047;-79
2023/02/12 09:05:02;;;;;;;6.72;3.90;;;6.40;99.90;;;;;;8232796;28;20684;-79
2023/02/12 09:09:03;;;;;;;8.73;5.03;;;6.20;99.90;;;;;;8235110;28;20034;-79
2023/02/12 09:13:05;;;;;;;6.65;3.60;;;6.00;99.90;;;;;;8234758;28;20030;-80
2023/02/12 09:17:05;;;;;;;10.45;4.55;;;6.10;99.90;;;;;;8235296;28;20070;-78
2023/02/12 09:21:12;;;;;;;7.57;4.28;;;6.00;99.90;;;;;;8231216;28;20982;-77
2023/02/12 09:25:13;;;;;;;8.77;4.65;;;6.10;99.90;;;;;;8235502;28;20567;-79
2023/02/12 09:29:13;;;;;;;8.80;4.93;;;6.50;99.90;;;;;;8233536;28;20082;-79
2023/02/12 09:33:14;;;;;;;6.57;3.42;;;6.70;99.90;;;;;;8232456;28;20026;-80
2023/02/12 09:37:14;;;;;;;3.22;1.83;;;7.00;99.90;;;;;;8232204;28;20396;-79
2023/02/12 09:41:24;;;;;;;5.88;3.15;;;6.90;99.90;;;;;;8232454;28;20487;-80
2023/02/12 09:45:38;;;;;;;8.98;4.72;;;6.40;99.90;;;;;;8230565;28;20030;-81
2023/02/12 09:50:12;;;;;;;8.88;5.13;;;6.30;99.90;;;;;;8226294;28;20031;-80
2023/02/12 09:54:25;;;;;;;10.77;5.15;;;6.40;99.90;;;;;;8230319;28;20027;-79
2023/02/12 09:58:34;;;;;;;7.70;3.95;;;6.70;99.90;;;;;;8231194;28;20026;-78
2023/02/12 10:02:37;;;;;;;6.93;3.97;;;7.20;99.90;;;;;;8229973;28;20159;-79
2023/02/12 10:06:48;;;;;;;5.25;2.35;;;7.40;99.90;;;;;;8231404;28;20039;-80
2023/02/12 10:11:23;;;;;;;8.95;4.50;;;7.20;99.90;;;;;;8232634;28;20094;-80
2023/02/12 10:15:53;;;;;;;10.82;4.70;;;7.20;99.90;;;;;;8231321;28;20042;-80
2023/02/12 10:20:18;;;;;;;7.95;3.97;;;7.60;99.90;;;;;;8233521;28;20045;-80
2023/02/12 10:24:53;;;;;;;6.13;3.53;;;7.40;99.90;;;;;;8234183;28;20027;-80
2023/02/12 10:28:56;;;;;;;8.65;3.80;;;7.40;99.90;;;;;;8232461;28;20034;-81
2023/02/12 10:33:04;;;;;;;1.58;0.98;;;7.70;99.90;;;;;;8234668;28;20541;-81
2023/02/12 10:37:11;;;;;;;7.85;3.67;;;7.90;99.90;;;;;;8233692;28;20026;-81
2023/02/12 10:41:14;;;;;;;7.80;4.20;;;7.80;99.90;;;;;;8228141;28;20030;-80
2023/02/12 10:45:22;;;;;;;1.55;0.65;;;7.70;99.90;;;;;;8232505;28;20035;-80
2023/02/12 10:49:23;;;;;;;4.80;2.17;;;7.80;99.90;;;;;;8231746;28;20037;-80
2023/02/12 10:53:31;;;;;;;7.65;4.22;;;7.80;99.90;;;;;;8231471;28;20603;-83
2023/02/12 10:57:37;;;;;;;5.68;3.33;;;8.20;99.90;;;;;;8235791;28;20019;-83
2023/02/12 11:01:38;;;;;;;7.30;3.95;;;8.50;99.90;;;;;;8235689;28;20051;-83
2023/02/12 11:05:41;;;;;;;3.85;1.92;;;8.60;99.90;;;;;;8234621;28;20023;-84
2023/02/12 11:09:47;;;;;;;7.55;2.05;;;8.50;99.90;;;;;;8234368;28;20081;-84
2023/02/12 11:14:03;;;;;;;5.13;2.58;;;8.10;99.90;;;;;;8234049;28;20380;-83
2023/02/12 11:18:07;;;;;;;3.50;1.60;;;8.30;99.90;;;;;;8234614;28;20022;-83
2023/02/12 11:22:17;;;;;;;1.80;0.70;;;8.60;99.90;;;;;;8234708;28;20023;-83
2023/02/12 11:26:17;;;;;;;2.20;1.85;;;9.30;99.90;;;;;;8236069;28;20042;-84
2023/02/12 11:30:20;;;;;;;3.63;1.67;;;8.80;99.90;;;;;;8234972;28;20030;-83
2023/02/12 11:34:20;;;;;;;3.58;2.20;;;9.00;99.90;;;;;;8230266;28;20641;-79
2023/02/12 11:38:29;;;;;;;4.40;2.30;;;9.20;99.90;;;;;;8225451;28;20033;-79
2023/02/12 11:42:36;;;;;;;3.85;1.50;;;9.50;99.90;;;;;;8228318;28;20023;-80
2023/02/12 11:46:38;;;;;;;4.70;2.25;;;9.50;99.90;;;;;;8226728;28;20588;-80
2023/02/12 11:50:47;;;;;;;2.47;1.35;;;9.40;99.90;;;;;;8227592;28;20101;-79
2023/02/12 11:54:49;;;;;;;5.30;2.92;;;10.00;99.90;;;;;;8224754;28;20034;-78
2023/02/12 11:58:51;;;;;;;4.20;2.30;;;9.80;99.90;;;;;;8225326;28;20518;-79
2023/02/12 12:03:15;;;;;;;5.55;2.42;;;10.20;99.90;;;;;;8224355;28;20023;-80
2023/02/12 12:07:25;;;;;;;5.80;3.50;;;10.00;99.90;;;;;;8226619;28;20033;-80
2023/02/12 12:11:46;;;;;;;6.53;2.83;;;10.20;99.90;;;;;;8226080;28;20090;-81
2023/02/12 12:20:20;;;;;;;5.25;2.50;;;10.30;99.90;;;;;;8227541;28;20043;-89
2023/02/12 12:24:42;;;;;;;6.03;3.60;;;10.00;99.90;;;;;;8229824;28;20027;-88
2023/02/12 12:29:17;;;;;;;7.28;4.00;;;10.00;99.90;;;;;;8236123;28;20046;-88
2023/02/12 12:33:43;;;;;;;7.18;3.35;;;12.00;99.90;;;;;;8237640;28;20075;-87
2023/02/12 12:37:51;;;;;;;5.95;2.85;;;12.90;99.90;;;;;;8233893;28;20023;-81
2023/02/12 12:42:11;;;;;;;4.72;2.67;;;11.20;99.90;;;;;;8237175;28;20015;-82
2023/02/12 12:46:26;;;;;;;3.85;1.83;;;10.90;99.90;;;;;;8233508;28;20038;-81
2023/02/12 12:51:01;;;;;;;2.92;1.63;;;9.60;99.90;;;;;;8229626;28;20116;-83
2023/02/12 12:55:20;;;;;;;0.47;0.47;;;9.00;99.90;;;;;;8232198;28;20114;-82
2023/02/12 12:59:45;;;;;;;4.68;2.47;;;8.70;99.90;;;;;;8228876;28;20035;-79
2023/02/12 13:04:08;;;;;;;2.80;1.75;;;8.60;99.90;;;;;;8229558;28;20118;-81
2023/02/12 13:08:18;;;;;;;4.93;2.75;;;8.60;99.90;;;;;;8235177;28;20169;-81
2023/02/12 13:12:53;;;;;;;3.58;1.73;;;8.50;99.90;;;;;;8232597;28;20027;-80
2023/02/12 13:17:12;;;;;;;5.28;3.13;;;8.60;99.90;;;;;;8232188;28;20039;-80
2023/02/12 13:21:17;;;;;;;4.10;2.08;;;8.40;99.90;;;;;;8231861;28;20043;-80
2023/02/12 13:25:24;;;;;;;3.90;0.75;;;8.20;99.90;;;;;;8232578;28;20107;-81
2023/02/12 13:29:28;;;;;;;1.42;0.93;;;8.20;99.90;;;;;;8234756;28;20100;-82
2023/02/12 13:33:41;;;;;;;5.90;2.90;;;8.30;99.90;;;;;;8233736;28;20034;-82
2023/02/12 13:37:45;;;;;;;3.95;1.77;;;8.20;99.90;;;;;;8232118;28;20078;-80
2023/02/12 13:42:06;;;;;;;2.55;1.77;;;8.10;99.90;;;;;;8233229;28;20019;-79
2023/02/12 13:46:32;;;;;;;2.38;1.48;;;8.10;99.90;;;;;;8228234;28;20027;-80
2023/02/12 13:50:51;;;;;;;3.55;2.05;;;8.20;99.90;;;;;;8231573;28;20252;-81
2023/02/12 13:55:08;;;;;;;3.67;1.58;;;8.10;99.90;;;;;;8233773;28;20027;-81
2023/02/12 13:59:47;;;;;;;2.60;1.88;;;8.00;99.90;;;;;;8234555;28;20038;-81
2023/02/12 14:03:48;;;;;;;2.90;2.08;;;7.90;99.90;;;;;;8172049;28;20035;-82
2023/02/12 14:07:51;;;;;;;2.40;1.15;;;7.70;99.90;;;;;;8237120;28;20051;-81
2023/02/12 14:11:52;;;;;;;4.72;2.25;;;7.60;99.90;;;;;;8234514;28;20034;-81
2023/02/12 14:15:56;;;;;;;3.63;2.00;;;7.60;99.90;;;;;;8233443;28;20113;-81
2023/02/12 14:20:07;;;;;;;6.93;2.47;;;7.70;99.90;;;;;;8233237;28;20019;-81
2023/02/12 14:24:36;;;;;;;5.53;2.92;;;7.60;99.90;;;;;;8227950;28;20407;-78
2023/02/12 14:28:55;;;;;;;4.22;1.70;;;7.40;99.90;;;;;;8231562;28;20122;-81
2023/02/12 14:33:06;;;;;;;7.18;3.83;;;7.30;99.90;;;;;;8231060;28;20035;-81
2023/02/12 14:37:11;;;;;;;4.45;2.55;;;7.20;99.90;;;;;;8228468;28;20030;-81
2023/02/12 14:41:33;;;;;;;2.15;1.55;;;7.00;99.90;;;;;;8232061;28;20078;-80
2023/02/12 14:45:36;;;;;;;5.30;2.55;;;6.90;99.90;;;;;;8230414;28;20106;-80
2023/02/12 14:49:48;;;;;;;3.25;1.80;;;6.90;99.90;;;;;;8231026;28;20019;-79
2023/02/12 14:53:52;;;;;;;2.08;0.95;;;6.90;99.90;;;;;;8229621;28;20018;-80
2023/02/12 14:58:19;;;;;;;6.40;3.42;;;6.90;99.90;;;;;;8230435;28;20026;-80
2023/02/12 15:02:25;;;;;;;5.03;2.83;;;6.80;99.90;;;;;;8224939;28;20030;-80
2023/02/12 15:06:38;;;;;;;5.45;3.03;;;6.70;99.90;;;;;;8230571;28;20505;-81
2023/02/12 15:11:02;;;;;;;5.50;2.42;;;6.70;99.90;;;;;;8230474;28;20030;-80
2023/02/12 15:15:23;;;;;;;4.93;2.22;;;6.70;99.90;;;;;;8234231;28;20034;-80
2023/02/12 15:19:38;;;;;;;6.18;3.28;;;6.70;99.90;;;;;;8226038;28;20027;-80
2023/02/12 15:23:43;;;;;;;6.68;2.95;;;6.60;99.90;;;;;;8228038;28;20054;-81
2023/02/12 15:27:46;;;;;;;6.40;3.08;;;6.60;99.90;;;;;;8228922;28;20030;-81
2023/02/12 15:31:56;;;;;;;6.25;3.10;;;6.40;99.90;;;;;;8229913;28;20037;-81
2023/02/12 15:35:57;;;;;;;3.65;2.35;;;6.30;99.90;;;;;;8226426;28;20065;-80
2023/02/12 15:40:02;;;;;;;5.97;2.85;;;6.30;99.90;;;;;;8226549;28;20035;-81
2023/02/12 15:44:22;;;;;;;5.22;2.97;;;6.20;99.90;;;;;;8230813;28;20026;-81
2023/02/12 15:48:30;;;;;;;6.15;3.25;;;6.00;99.90;;;;;;8226607;28;20395;-80
2023/02/12 15:52:35;;;;;;;7.53;3.25;;;6.00;99.90;;;;;;8228131;28;20039;-81
2023/02/12 15:56:40;;;;;;;5.72;3.03;;;6.10;99.90;;;;;;8229951;28;20023;-81
2023/02/12 16:00:43;;;;;;;3.72;2.65;;;6.00;99.90;;;;;;8230261;28;20027;-80
2023/02/12 16:04:44;;;;;;;6.55;2.60;;;5.90;99.90;;;;;;8232627;28;20029;-80
2023/02/12 16:08:48;;;;;;;6.07;3.28;;;5.70;99.90;;;;;;8235930;28;20027;-81
2023/02/12 16:12:49;;;;;;;5.90;3.00;;;5.60;99.90;;;;;;8234792;28;20026;-81
2023/02/12 16:16:53;;;;;;;5.18;3.15;;;5.40;99.90;;;;;;8232525;28;20037;-81
2023/02/12 16:21:06;;;;;;;4.55;2.47;;;5.20;99.90;;;;;;8233434;28;20015;-80
2023/02/12 16:25:18;;;;;;;6.20;3.00;;;5.10;99.90;;;;;;8232673;28;20027;-80
2023/02/12 16:29:19;;;;;;;4.20;2.50;;;5.00;99.90;;;;;;8233081;28;20031;-81
2023/02/12 16:33:38;;;;;;;6.30;2.65;;;5.00;99.90;;;;;;8235420;28;20038;-81
2023/02/12 16:37:40;;;;;;;4.60;2.38;;;4.80;99.90;;;;;;8235111;28;20110;-81
2023/02/12 16:41:54;;;;;;;6.15;2.35;;;4.60;99.90;;;;;;8235922;28;20031;-81
2023/02/12 16:46:04;;;;;;;6.45;2.90;;;4.40;99.90;;;;;;8231875;28;20447;-81
2023/02/12 16:50:14;;;;;;;6.78;2.90;;;4.30;99.90;;;;;;8234601;28;21021;-81
2023/02/12 16:54:30;;;;;;;4.10;1.92;;;4.20;99.90;;;;;;8235160;28;20077;-81
2023/02/12 16:58:31;;;;;;;7.00;3.72;;;4.20;99.90;;;;;;8235566;28;20093;-81
2023/02/12 17:02:32;;;;;;;10.18;3.88;;;4.20;99.90;;;;;;8236255;28;20101;-81
2023/02/12 17:06:33;;;;;;;6.15;2.95;;;4.00;99.90;;;;;;8233334;28;20073;-80
2023/02/12 17:10:33;;;;;;;6.30;2.95;;;3.90;99.90;;;;;;8236100;28;20030;-81
2023/02/12 17:14:34;;;;;;;6.00;3.20;;;3.30;99.90;;;;;;8235090;28;20030;-81
2023/02/12 17:18:35;;;;;;;6.82;3.63;;;2.80;99.90;;;;;;8233818;28;20019;-79
2023/02/12 17:22:36;;;;;;;7.88;3.72;;;2.60;99.90;;;;;;8232562;28;20554;-80
2023/02/12 17:26:36;;;;;;;5.38;3.38;;;2.30;99.90;;;;;;8233089;28;20046;-81
2023/02/12 17:30:37;;;;;;;9.00;4.20;;;2.00;99.90;;;;;;8235152;28;20046;-80
2023/02/12 17:34:38;;;;;;;12.48;5.10;;;2.10;99.90;;;;;;8233856;28;20030;-79
2023/02/12 17:38:38;;;;;;;9.20;4.57;;;2.50;99.90;;;;;;8232901;28;20070;-79
2023/02/12 17:42:39;;;;;;;11.10;4.80;;;2.50;99.90;;;;;;8227025;28;20507;-80
2023/02/12 17:46:39;;;;;;;10.07;5.00;;;2.20;99.90;;;;;;8233212;28;20035;-80
2023/02/12 17:50:41;;;;;;;9.30;5.07;;;2.20;99.90;;;;;;8235113;28;20034;-80
2023/02/12 17:54:45;;;;;;;13.23;5.43;;;2.40;99.90;;;;;;8234086;28;20106;-80
2023/02/12 17:58:46;;;;;;;10.43;5.60;;;2.00;99.90;;;;;;8233998;28;20027;-79
2023/02/12 18:02:50;;;;;;;13.38;5.55;;;2.40;99.90;;;;;;8233089;28;20508;-80
2023/02/12 18:06:50;;;;;;;15.43;6.13;;;2.40;99.90;;;;;;8233892;28;20057;-80
2023/02/12 18:10:51;;;;;;;11.38;5.55;;;2.60;99.90;;;;;;8233681;28;20034;-80
2023/02/12 18:14:56;;;;;;;10.93;5.28;;;2.60;99.90;;;;;;8233760;28;20026;-80
2023/02/12 18:18:58;;;;;;;13.07;5.32;;;2.50;99.90;;;;;;8235293;28;20035;-80
2023/02/12 18:22:59;;;;;;;11.27;5.53;;;2.60;99.90;;;;;;8234955;28;20023;-80
2023/02/12 18:27:00;;;;;;;16.00;5.97;;;2.70;99.90;;;;;;8227505;28;20019;-79
2023/02/12 18:31:01;;;;;;;16.20;6.85;;;2.80;99.90;;;;;;8233716;28;20039;-79
2023/02/12 18:35:06;;;;;;;16.17;7.22;;;2.70;99.90;;;;;;8231851;28;20549;-80
2023/02/12 18:39:07;;;;;;;16.42;7.30;;;2.60;99.90;;;;;;8232280;28;20031;-81
2023/02/12 18:43:07;;;;;;;13.65;6.32;;;2.30;99.90;;;;;;8231140;28;20020;-82
2023/02/12 18:47:08;;;;;;;15.43;6.72;;;2.00;99.90;;;;;;8233466;28;20027;-81
2023/02/12 18:51:14;;;;;;;16.42;7.32;;;1.80;99.90;;;;;;8232050;28;20038;-82
2023/02/12 18:55:14;;;;;;;22.05;9.18;;;1.60;99.90;;;;;;8232145;28;20175;-82
2023/02/12 18:59:15;;;;;;;15.98;7.00;;;1.40;99.90;;;;;;8233271;28;20506;-82
2023/02/12 19:03:16;;;;;;;15.02;6.07;;;1.30;99.90;;;;;;8236033;28;20090;-82
2023/02/12 19:07:16;;;;;;;13.50;6.07;;;1.10;99.90;;;;;;8232424;28;20026;-81
2023/02/12 19:11:17;;;;;;;15.30;7.25;;;1.20;99.90;;;;;;8231842;28;20027;-81
2023/02/12 19:15:17;;;;;;;17.63;7.13;;;1.30;99.90;;;;;;8231744;28;20022;-82
2023/02/12 19:19:19;;;;;;;18.00;6.70;;;1.40;99.90;;;;;;8235794;28;20484;-82
2023/02/12 19:23:20;;;;;;;15.98;7.10;;;1.40;99.90;;;;;;8233047;28;20525;-81
2023/02/12 19:27:20;;;;;;;13.05;5.82;;;1.10;99.90;;;;;;8230392;28;20018;-82
2023/02/12 19:31:24;;;;;;;12.55;5.78;;;1.10;99.90;;;;;;8227420;28;20063;-82
2023/02/12 19:35:24;;;;;;;13.82;6.60;;;0.70;99.90;;;;;;8231122;28;20034;-81
2023/02/12 19:39:25;;;;;;;17.55;6.35;;;0.40;99.90;;;;;;8228761;28;20411;-80
2023/02/12 19:43:25;;;;;;;15.15;5.78;;;0.20;99.90;;;;;;8231292;28;20496;-80
2023/02/12 19:47:26;;;;;;;17.27;6.90;;;0.10;99.90;;;;;;8233174;28;20031;-80
2023/02/12 19:51:28;;;;;;;18.35;7.97;;;0.10;99.90;;;;;;8231052;28;20582;-80
2023/02/12 19:55:29;;;;;;;20.02;7.22;;;0.10;99.90;;;;;;8227597;28;20030;-80
2023/02/12 19:59:30;;;;;;;17.75;8.95;;;0.00;99.90;;;;;;8228587;28;20259;-80
2023/02/12 20:03:31;;;;;;;16.88;7.38;;;0.30;99.90;;;;;;8228974;28;20078;-81
2023/02/12 20:07:32;;;;;;;15.02;7.53;;;0.20;99.90;;;;;;8234491;28;20023;-81
2023/02/12 20:11:36;;;;;;;21.83;8.98;;;-0.10;99.90;;;;;;8232172;28;20047;-81
2023/02/12 20:15:37;;;;;;;20.23;8.07;;;-0.20;99.90;;;;;;8232108;28;20396;-81
2023/02/12 20:19:37;;;;;;;17.23;7.95;;;-0.40;99.90;;;;;;8233356;28;20046;-80
2023/02/12 20:23:38;;;;;;;20.42;7.65;;;-0.40;99.90;;;;;;8230570;28;20408;-79
2023/02/12 20:27:39;;;;;;;18.33;6.90;;;-0.50;99.90;;;;;;8233846;28;20498;-80
2023/02/12 20:31:41;;;;;;;17.67;7.68;;;-0.70;99.90;;;;;;8230604;28;20038;-81
2023/02/12 20:35:42;;;;;;;15.98;6.72;;;-0.80;99.90;;;;;;8232990;28;20030;-80
2023/02/12 20:39:42;;;;;;;23.52;8.32;;;-0.80;99.90;;;;;;8232518;28;20081;-80
2023/02/12 20:43:43;;;;;;;18.38;8.00;;;-0.90;99.90;;;;;;8230205;28;20030;-80
2023/02/12 20:47:44;;;;;;;18.88;7.50;;;-0.90;99.90;;;;;;8235680;28;20098;-80
2023/02/12 20:51:47;;;;;;;19.00;8.15;;;-1.00;99.90;;;;;;8233622;28;20483;-80
2023/02/12 20:55:47;;;;;;;23.48;7.15;;;-1.00;99.90;;;;;;8234211;28;20023;-80
2023/02/12 20:59:48;;;;;;;20.38;7.95;;;-1.00;99.90;;;;;;8261786;28;20050;-79
2023/02/12 21:03:51;;;;;;;16.10;7.22;;;-1.00;99.90;;;;;;8270594;28;20022;-79
2023/02/12 21:07:52;;;;;;;20.10;7.28;;;-1.00;99.90;;;;;;8240598;28;20062;-80
2023/02/12 21:11:54;;;;;;;21.20;8.40;;;-0.90;99.90;;;;;;8234119;28;20030;-80
2023/02/12 21:16:07;;;;;;;21.90;7.30;;;-0.90;99.90;;;;;;8233773;28;20720;-80
2023/02/12 21:20:08;;;;;;;19.38;7.93;;;-1.10;99.90;;;;;;8233332;28;20046;-80
2023/02/12 21:24:12;;;;;;;18.88;7.15;;;-1.10;99.90;;;;;;8232568;28;20451;-79